Terminal Aerodrome Forecast
Issued by NWS

Home | Current Version | Previous Version | Text Only | Print | Product List | Glossary On
Versions: 1 2 3 4 5 6 7 8 9 10 11 12 13 14 15 16
000
FTUS45 KGGW 241135
TAFGDV
TAF
KGDV 241135Z 2412/2512 04006KT P6SM -FZDZ OVC004
     FM241700 06011KT P6SM BKN017
     FM242100 06011KT P6SM BKN025
     FM250400 06011KT P6SM BKN018=

USA.gov is the U.S. government's official web portal to all federal, state and local government web resources and services.